Varnell, Georgia
Current Conditions -  °F | °C
As of 12:55 PM on Saturday 25 Oct 2014 (Local Time) from KDNN Reporting Station
Clear Clear  
Wind Chill: 68°   Ceiling: Unl
Heat Index: 68°   Visibility: 10mi
Dew Point: 46°   Wind: 10mph
Humidity: 46%   Direction: 310°NW
Pressure: 30.09"   Gusts: NA
Location:  34.9°N, 84.97°W
Report Text: KDNN 251655Z AUTO 31009KT 10SM CLR 20/08 A3009 RMK AO2
Loading
Personal Weather Stations






























Interactive Weather Map
Tropical Storm Tracking
New forecast layout! Learn more

10-Day Weather Forecast

Advertisements
Track Severe Weather on mobile